Rockbridge, Ohio
Current Conditions -  °F | °C
As of 6:53 AM on Monday 24 Nov 2014 (Local Time) from KLHQ Reporting Station
Overcast Overcast  
Wind Chill: 61°   Ceiling: 3500
Heat Index: 61°   Visibility: 10mi
Dew Point: 53°   Wind: 14mph
Humidity: 75%   Direction: 180°S
Pressure: 29.37"   Gusts: 23mph
Location:  39.58°N, 82.52°W
Report Text: KLHQ 241153Z AUTO 18012G20KT 10SM SCT029 OVC035 16/12 A2937 RMK AO2 SLP942 60003 70024 T01610117 10161 20144 58001
Loading
Personal Weather Stations






























Interactive Weather Map New forecast layout! Learn more

10-Day Weather Forecast

Advertisements
Track Severe Weather on mobile